Latest Weather Observations for Coolangatta

IDQ60901

Issued at 7:15 am EST Wednesday 23 July 2014 (issued every 10 minutes, with the page automatically refreshed every 10 minutes)

About weather observations | Map of Brisbane area stations | Latest observations for Brisbane area | Other Formats
Station Details ID: 040717 Name: COOLANGATTA Lat: -28.17 Lon: 153.51 Height: 4.0 m
Data from the previous 72 hours. | See also: Recent months at Coolangatta
Date/Time
EST
Tmp

°C
App
Tmp
°C
Dew
Point
°C
Rel
Hum
%
Delta-T

°C
Wind Press
QNH
hPa
Press
MSL
hPa
Rain
since
9 am
mm
Dir
 
Spd
km/h
Gust
km/h
Spd
kts
Gust
kts
23/07:00am 12.8 9.3 8.9 77 1.9 S 17 24 9 13 1022.3 - 1.4
23/06:30am 13.0 8.9 8.7 75 2.2 SSW 20 28 11 15 1021.8 - 1.4
23/06:00am 12.8 9.3 8.9 77 1.9 SSW 17 26 9 14 1021.4 1021.4 1.4
23/05:30am 12.8 9.4 9.1 78 1.9 S 17 24 9 13 1021.3 - 1.4
23/05:00am 12.6 9.5 8.9 78 1.9 SSW 15 24 8 13 1021.1 - 1.4
23/04:30am 12.6 9.2 9.2 80 1.7 SSW 17 26 9 14 1020.9 - 1.4
23/04:00am 12.6 10.1 9.6 82 1.5 SW 13 19 7 10 1020.7 - 1.4
23/03:30am 12.9 9.6 9.7 81 1.6 SSW 17 24 9 13 1020.6 - 1.4
23/03:00am 12.5 10.4 9.7 83 1.4 SSW 11 17 6 9 1020.8 1020.8 1.4
23/02:30am 12.7 10.3 9.9 83 1.4 SSW 13 17 7 9 1021.1 - 1.4
23/02:00am 12.6 9.7 9.8 83 1.4 SSW 15 20 8 11 1021.5 - 1.4
23/01:30am 12.0 9.1 9.7 86 1.2 S 15 19 8 10 1021.4 - 1.4
23/01:19am 11.4 8.5 9.8 90 0.8 S 15 19 8 10 1021.3 - 1.4
23/01:02am 10.0 8.8 9.4 96 0.3 SSW 6 11 3 6 1021.3 - 1.4
23/01:00am 10.1 9.3 9.5 96 0.3 SSW 4 6 2 3 1021.4 - 1.4
23/12:47am 10.4 9.3 9.8 96 0.3 SW 6 6 3 3 1021.6 - 1.4
23/12:30am 10.2 10.1 9.4 95 0.4 CALM 0 6 0 3 1021.6 - 1.4
23/12:07am 9.9 8.5 9.0 94 0.4 SE 6 7 3 4 1021.8 - 1.4
23/12:00am 10.3 9.1 9.4 94 0.4 SE 6 7 3 4 1021.9 1021.9 1.4
 
Date/Time
EST
Tmp

°C
App
Tmp
°C
Dew
Point
°C
Rel
Hum
%
Delta-T

°C
Wind Press
QNH
hPa
Press
MSL
hPa
Rain
since
9 am
mm
Dir
 
Spd
km/h
Gust
km/h
Spd
kts
Gust
kts
22/11:30pm 11.0 10.7 10.1 94 0.5 S 2 9 1 5 1021.9 - 1.4
22/11:00pm 11.1 9.8 9.9 92 0.6 SW 7 9 4 5 1021.7 - 1.4
22/10:30pm 12.2 11.2 10.4 89 0.9 S 6 7 3 4 1022.1 - 1.4
22/10:00pm 12.6 11.1 10.7 88 1.0 W 9 11 5 6 1022.3 - 1.4
22/09:30pm 12.7 11.4 11.3 91 0.7 S 9 11 5 6 1022.4 - 1.4
22/09:00pm 13.4 11.5 11.8 90 0.9 WSW 13 15 7 8 1022.6 1022.6 1.4
22/08:33pm 13.6 12.8 11.8 89 1.0 S 7 13 4 7 1022.1 - 1.4
22/08:30pm 13.7 13.2 11.9 89 1.0 S 6 15 3 8 1022.1 - 1.2
22/08:12pm 14.3 9.8 11.5 83 1.5 S 26 39 14 21 1022.6 - 0.8
22/08:09pm 15.0 10.3 12.1 83 1.6 S 28 39 15 21 1022.4 - 0.2
22/08:00pm 15.1 14.1 12.4 84 1.5 SW 9 13 5 7 1022.3 - 0.0
22/07:30pm 14.2 13.4 11.7 85 1.3 SW 7 9 4 5 1022.2 - 0.0
22/07:00pm 14.9 13.7 11.7 81 1.7 WSW 9 13 5 7 1022.0 - 0.0
22/06:30pm 15.5 14.4 12.1 80 1.9 WSW 9 11 5 6 1021.6 - 0.0
22/06:00pm 16.2 15.6 12.2 77 2.2 W 7 11 4 6 1021.3 1021.3 0.0
22/05:30pm 16.6 14.7 11.9 74 2.6 SSE 13 19 7 10 1020.8 - 0.0
22/05:00pm 16.8 15.2 11.5 71 2.9 SE 11 17 6 9 1020.4 - 0.0
22/04:30pm 16.9 13.9 11.8 72 2.8 SSE 19 24 10 13 1019.9 - 0.0
22/04:00pm 17.1 14.0 12.2 73 2.7 SE 20 32 11 17 1019.9 - 0.0
22/03:30pm 17.3 13.7 11.8 70 3.0 SE 22 33 12 18 1019.6 - 0.0
22/03:00pm 17.8 12.6 11.6 67 3.4 SE 30 35 16 19 1019.2 1019.2 0.0
22/02:30pm 19.4 14.7 11.9 62 4.2 ESE 28 35 15 19 1019.1 - 0.0
22/02:00pm 19.2 16.1 11.7 62 4.1 SE 19 24 10 13 1019.4 - 0.0
22/01:30pm 20.2 16.2 11.7 58 4.7 SE 24 32 13 17 1019.5 - 0.0
22/01:00pm 18.2 15.5 11.7 66 3.6 ESE 17 20 9 11 1019.9 - 0.0
22/12:30pm 18.3 15.1 11.4 64 3.8 ESE 19 24 10 13 1020.3 - 0.0
22/12:00pm 19.2 17.9 9.9 55 4.9 S 7 15 4 8 1020.8 1020.8 0.0
22/11:30am 18.7 15.3 9.2 54 5.0 S 17 24 9 13 1021.4 - 0.0
22/11:00am 19.1 15.7 10.4 57 4.7 SSE 19 24 10 13 1021.9 - 0.0
22/10:30am 19.1 16.5 10.6 58 4.6 SSE 15 20 8 11 1022.2 - 0.0
22/10:00am 18.9 16.3 10.7 59 4.4 SSE 15 22 8 12 1022.3 - 0.0
22/09:30am 18.6 17.5 10.7 60 4.3 SW 7 11 4 6 1022.3 - 0.0
22/09:00am 17.5 15.6 10.6 64 3.7 SW 11 15 6 8 1022.6 1022.6 0.0
22/08:30am 16.0 15.4 11.6 75 2.4 SSW 6 9 3 5 1022.6 - 0.0
22/08:00am 14.7 13.2 11.8 83 1.6 S 11 15 6 8 1022.5 - 0.0
22/07:30am 12.7 11.4 11.4 92 0.7 SW 9 13 5 7 1022.3 - 0.0
22/07:00am 11.2 10.3 10.7 97 0.3 S 6 7 3 4 1022.0 - 0.0
22/06:59am 11.2 10.3 10.7 97 0.3 S 6 7 3 4 1022.0 - 0.0
22/06:30am 10.0 9.1 9.4 96 0.3 S 4 6 2 3 1021.7 - 0.0
22/06:27am 10.1 9.3 9.5 96 0.3 S 4 6 2 3 1021.7 - 0.0
22/06:15am 10.4 9.1 9.8 96 0.3 S 7 7 4 4 1021.6 - 0.0
22/06:05am 9.8 8.3 9.2 96 0.3 SSW 7 9 4 5 1021.6 - 0.0
22/06:00am 10.2 8.8 9.6 96 0.3 SSW 7 9 4 5 1021.6 1021.6 0.0
22/05:30am 10.7 10.8 10.1 96 0.3 CALM 0 0 0 0 1021.4 - 0.0
22/05:00am 10.5 9.2 9.9 96 0.3 SSE 7 9 4 5 1021.2 - 0.0
22/04:53am 10.0 8.6 9.4 96 0.3 S 7 11 4 6 1021.1 - 0.0
22/04:34am 10.1 8.7 9.5 96 0.3 S 7 9 4 5 1021.1 - 0.0
22/04:30am 10.1 8.7 9.5 96 0.3 S 7 9 4 5 1021.2 - 0.0
22/04:21am 10.9 9.9 10.3 96 0.3 S 6 7 3 4 1021.1 - 0.0
22/04:03am 10.4 9.6 9.8 96 0.3 SSE 4 7 2 4 1021.2 - 0.0
22/04:00am 10.5 9.7 9.7 95 0.4 SSE 4 7 2 4 1021.2 - 0.0
22/03:30am 10.1 8.3 9.5 96 0.3 SSW 9 11 5 6 1021.3 - 0.0
22/03:00am 11.4 10.3 10.8 96 0.3 S 7 9 4 5 1021.3 1021.3 0.0
22/02:35am 11.1 10.0 10.6 97 0.3 SSW 7 9 4 5 1021.3 - 0.0
22/02:30am 10.8 9.6 10.2 96 0.3 SSW 7 9 4 5 1021.3 - 0.0
22/02:14am 9.7 7.8 8.9 95 0.4 S 9 11 5 6 1021.3 - 0.0
22/02:00am 10.3 9.1 9.5 95 0.4 SE 6 7 3 4 1021.4 - 0.0
22/01:30am 10.8 9.8 10.2 96 0.3 SW 6 7 3 4 1021.7 - 0.0
22/01:00am 10.1 8.2 9.2 94 0.4 S 9 13 5 7 1022.0 - 0.0
22/12:30am 10.5 9.1 9.6 94 0.5 SSE 7 9 4 5 1022.1 - 0.0
22/12:00am 11.0 9.9 9.9 93 0.6 SSW 6 7 3 4 1022.1 1022.1 0.0
 
Date/Time
EST
Tmp

°C
App
Tmp
°C
Dew
Point
°C
Rel
Hum
%
Delta-T

°C
Wind Press
QNH
hPa
Press
MSL
hPa
Rain
since
9 am
mm
Dir
 
Spd
km/h
Gust
km/h
Spd
kts
Gust
kts
21/11:30pm 11.8 10.9 10.5 92 0.7 SW 6 9 3 5 1022.3 - 0.0
21/11:00pm 12.0 10.5 10.6 91 0.7 WSW 9 11 5 6 1022.6 - 0.0
21/10:30pm 12.9 12.2 11.3 90 0.8 SW 6 7 3 4 1022.5 - 0.0
21/10:00pm 13.1 12.1 11.0 87 1.1 SSW 7 9 4 5 1022.7 - 0.0
21/09:30pm 12.5 11.4 10.6 88 1.0 SSE 7 9 4 5 1022.7 - 0.0
21/09:00pm 12.9 11.6 11.3 90 0.8 WSW 9 11 5 6 1022.8 1022.8 0.0
21/08:30pm 13.0 11.7 11.4 90 0.8 WSW 9 11 5 6 1022.9 - 0.0
21/08:00pm 13.7 12.4 11.4 86 1.2 S 9 11 5 6 1022.9 - 0.0
21/07:30pm 13.9 13.0 11.4 85 1.3 S 7 11 4 6 1022.9 - 0.0
21/07:00pm 14.3 13.2 11.8 85 1.3 S 9 13 5 7 1022.8 - 0.0
21/06:30pm 14.5 13.4 11.8 84 1.5 S 9 11 5 6 1022.6 - 0.0
21/06:00pm 14.8 14.0 11.6 81 1.7 S 7 11 4 6 1022.3 1022.3 0.0
21/05:30pm 15.8 14.3 11.8 77 2.2 S 11 13 6 7 1021.8 - 0.0
21/05:00pm 16.7 14.9 12.0 74 2.6 S 13 19 7 10 1021.7 - 0.0
21/04:30pm 17.7 15.5 12.2 70 3.0 SSE 15 20 8 11 1021.4 - 0.0
21/04:00pm 17.8 15.1 11.8 68 3.3 SE 17 22 9 12 1021.2 - 0.0
21/03:30pm 18.4 15.6 11.5 64 3.8 SSE 17 22 9 12 1021.2 - 0.0
21/03:00pm 19.6 16.4 11.1 58 4.6 SSE 19 26 10 14 1020.9 1020.9 0.0
21/02:30pm 19.5 15.8 10.2 55 5.0 SSE 20 28 11 15 1020.7 - 0.0
21/02:00pm 20.7 18.5 13.2 62 4.3 S 17 24 9 13 1020.6 - 0.0
21/01:30pm 19.5 17.1 12.5 64 3.9 S 17 26 9 14 1020.7 - 0.0
21/01:00pm 19.0 16.5 12.3 65 3.7 S 17 24 9 13 1021.3 - 0.0
21/12:30pm 20.1 18.0 12.3 61 4.4 S 15 22 8 12 1021.6 - 0.0
21/12:00pm 20.6 18.2 12.6 60 4.5 S 17 26 9 14 1022.1 1022.1 0.0
21/11:30am 19.2 17.5 12.5 65 3.7 S 13 19 7 10 1022.7 - 0.0
21/11:00am 18.8 16.7 12.3 66 3.6 SSW 15 20 8 11 1023.1 - 0.0
21/10:30am 18.6 16.9 12.6 68 3.4 SSW 13 19 7 10 1023.4 - 0.0
21/10:00am 17.2 14.6 12.1 72 2.8 SW 17 24 9 13 1023.6 - 0.0
21/09:30am 16.2 13.3 12.4 78 2.1 SW 19 26 10 14 1023.7 - 0.0
21/09:00am 16.4 13.9 12.2 76 2.3 S 17 24 9 13 1023.9 1023.9 0.0
21/08:30am 15.4 13.4 11.6 78 2.0 S 13 17 7 9 1023.8 - 0.0
21/08:00am 15.5 13.5 11.5 77 2.2 SSW 13 20 7 11 1023.6 - 0.0
21/07:30am 14.6 12.1 11.0 79 1.9 SSW 15 22 8 12 1023.0 - 0.0
21/07:00am 14.0 11.4 10.8 81 1.7 S 15 20 8 11 1022.8 - 0.0
21/06:30am 13.9 11.2 10.5 80 1.8 SSW 15 22 8 12 1022.5 - 0.0
21/06:00am 13.9 11.7 10.7 81 1.7 S 13 19 7 10 1022.1 1022.1 0.0
21/05:30am 13.9 11.7 10.7 81 1.7 SSW 13 22 7 12 1021.8 - 0.0
21/05:00am 13.8 11.9 10.6 81 1.7 SSW 11 20 6 11 1021.8 - 0.0
21/04:30am 13.9 11.7 10.7 81 1.7 SSW 13 19 7 10 1021.5 - 0.0
21/04:00am 13.9 11.7 10.9 82 1.6 SSW 13 17 7 9 1021.3 - 0.0
21/03:30am 13.9 11.7 10.7 81 1.7 SSW 13 17 7 9 1021.2 - 0.0
21/03:00am 14.2 11.6 10.6 79 1.9 SSW 15 22 8 12 1021.3 1021.3 0.0
21/02:30am 14.3 11.6 10.5 78 2.0 SSW 15 24 8 13 1021.4 - 0.0
21/02:00am 14.7 12.2 10.9 78 2.0 SSW 15 22 8 12 1021.6 - 0.0
21/01:30am 14.6 12.4 10.8 78 2.0 SSW 13 20 7 11 1021.6 - 0.0
21/01:00am 14.5 12.3 10.7 78 2.0 SSW 13 19 7 10 1021.8 - 0.0
21/12:30am 14.8 11.5 10.8 77 2.1 SSW 19 32 10 17 1021.7 - 0.0
21/12:00am 14.8 12.3 11.0 78 2.0 SSW 15 24 8 13 1021.6 1021.6 0.0
 
Date/Time
EST
Tmp

°C
App
Tmp
°C
Dew
Point
°C
Rel
Hum
%
Delta-T

°C
Wind Press
QNH
hPa
Press
MSL
hPa
Rain
since
9 am
mm
Dir
 
Spd
km/h
Gust
km/h
Spd
kts
Gust
kts
20/11:30pm 15.1 12.6 10.9 76 2.2 SSW 15 20 8 11 1021.8 - 0.0
20/11:00pm 15.1 12.7 11.5 79 1.9 SSW 15 20 8 11 1022.1 - 0.0
20/10:44pm 14.9 12.6 11.7 81 1.7 SSW 15 19 8 10 1022.0 - 0.0
20/10:34pm 15.1 12.3 11.5 79 1.9 SSW 17 22 9 12 1022.2 - 0.0
20/10:30pm 15.5 12.7 11.5 77 2.2 SSW 17 24 9 13 1022.1 - 0.0
20/10:00pm 15.4 12.6 11.2 76 2.2 SSW 17 26 9 14 1022.1 - 0.0
20/09:30pm 15.7 13.0 10.5 71 2.7 SSW 15 20 8 11 1021.9 - 0.0
20/09:00pm 15.1 12.8 10.3 73 2.5 S 13 19 7 10 1021.7 1021.7 0.0
20/08:30pm 15.5 13.2 10.5 72 2.6 SSW 13 20 7 11 1021.4 - 0.0
20/08:00pm 15.5 13.5 10.3 71 2.7 SSW 11 15 6 8 1021.5 - 0.0
20/07:30pm 15.7 14.0 10.0 69 3.0 SSW 9 17 5 9 1021.4 - 0.0
20/07:00pm 16.0 13.6 10.1 68 3.1 SSW 13 20 7 11 1021.1 - 0.0
20/06:30pm 16.3 13.6 10.2 67 3.2 SSW 15 24 8 13 1020.7 - 0.0
20/06:00pm 16.4 13.5 9.8 65 3.4 SSW 15 20 8 11 1020.8 1020.8 0.0
20/05:30pm 16.6 14.0 9.3 62 3.8 SSW 13 22 7 12 1020.5 - 0.0
20/05:00pm 17.2 13.4 9.1 59 4.2 SSW 19 26 10 14 1020.0 - 0.0
20/04:30pm 17.8 13.4 8.9 56 4.6 S 22 30 12 16 1019.6 - 0.0
20/04:00pm 18.9 14.8 8.6 51 5.3 S 20 35 11 19 1019.5 - 0.0
20/03:30pm 19.6 15.4 8.3 48 5.9 S 20 28 11 15 1019.5 - 0.0
20/03:00pm 18.8 13.8 8.2 50 5.4 SSW 24 35 13 19 1019.4 1019.4 0.0
20/02:30pm 20.3 16.2 8.6 47 6.1 SSW 20 39 11 21 1019.3 - 0.0
20/02:00pm 19.2 15.2 8.2 49 5.7 SSW 19 30 10 16 1019.6 - 0.0
20/01:30pm 19.0 14.3 7.8 48 5.7 SSW 22 35 12 19 1019.4 - 0.0
20/01:00pm 19.7 15.6 7.8 46 6.1 S 19 32 10 17 1019.4 - 0.0
20/12:30pm 19.9 15.2 7.9 46 6.2 S 22 37 12 20 1019.5 - 0.0
20/12:00pm 21.1 17.0 8.7 45 6.5 S 20 33 11 18 1019.6 1019.6 0.0
20/11:30am 20.0 14.1 7.7 45 6.3 S 28 41 15 22 1019.7 - 0.0
20/11:00am 19.5 13.6 7.3 45 6.2 S 28 41 15 22 1019.9 - 0.0
20/10:30am 18.8 13.5 6.6 45 6.1 SSW 24 37 13 20 1020.1 - 0.0
20/10:00am 18.4 12.7 6.6 46 5.9 SSW 26 35 14 19 1020.3 - 0.0
20/09:30am 17.6 12.8 5.5 45 5.9 SSW 20 35 11 19 1020.5 - 0.0
20/09:00am 16.7 12.0 5.0 46 5.5 SSW 19 30 10 16 1020.7 1020.7 0.0
20/08:30am 16.0 11.6 4.7 47 5.3 SSW 17 26 9 14 1020.9 - 0.0
20/08:00am 15.1 10.7 4.8 50 4.8 SSW 17 24 9 13 1020.6 - 0.0
20/07:30am 14.2 9.6 3.9 50 4.7 SSW 17 24 9 13 1020.6 - 0.0

Latest Capital City Observations: Canberra | Sydney | Melbourne | Brisbane | Adelaide | Perth | Hobart | Darwin

Other Formats:

Comma delimited format used in spreadsheet applications
http://www.bom.gov.au/fwo/IDQ60901/IDQ60901.94592.axf

JavaScript Object Notation format (JSON) in row-major order
http://www.bom.gov.au/fwo/IDQ60901/IDQ60901.94592.json